createdAt,value
2018-08-31T15:54:19.192Z,22.05
2018-08-31T15:56:52.396Z,23.55
2018-08-31T15:59:20.571Z,23.73
2018-08-31T16:01:49.056Z,23.32
2018-08-31T16:04:17.124Z,25.10
2018-08-31T16:06:45.186Z,24.90
2018-08-31T16:09:13.377Z,26.40
2018-08-31T16:11:41.635Z,25.20
2018-08-31T16:14:09.696Z,25.25
2018-08-31T16:16:37.786Z,25.70
2018-08-31T16:19:06.017Z,25.30
2018-08-31T16:21:35.840Z,26.25
2018-08-31T16:24:19.904Z,28.62
2018-08-31T16:26:57.576Z,29.90
2018-08-31T16:29:28.684Z,29.40
2018-08-31T16:31:56.935Z,29.40
2018-08-31T16:34:25.120Z,30.90
2018-08-31T16:36:57.428Z,28.47
2018-08-31T16:39:25.967Z,28.80
2018-08-31T16:41:54.202Z,29.32
2018-08-31T16:44:23.277Z,28.98
2018-08-31T16:46:51.583Z,30.12
2018-08-31T16:49:19.891Z,30.80
2018-08-31T16:51:48.098Z,29.23
2018-08-31T16:54:16.167Z,28.57
2018-08-31T16:56:44.356Z,29.67
2018-08-31T16:59:12.514Z,29.42
2018-08-31T17:01:40.591Z,29.98
2018-08-31T17:04:08.749Z,30.50
2018-08-31T17:06:36.841Z,29.72
2018-08-31T17:09:09.025Z,30.20
2018-08-31T17:11:37.190Z,27.35
2018-08-31T17:14:05.356Z,29.47
2018-08-31T17:16:33.508Z,30.50
2018-08-31T17:19:01.911Z,30.17
2018-08-31T17:21:48.405Z,32.63
2018-08-31T17:24:22.440Z,27.37
2018-08-31T17:26:55.953Z,26.17
2018-08-31T17:29:29.589Z,67.67
2018-08-31T17:32:03.190Z,26.42
2018-08-31T17:34:36.520Z,24.90
2018-08-31T17:37:10.782Z,26.70
2018-08-31T17:39:39.037Z,25.70
2018-08-31T17:42:07.568Z,28.55
2018-08-31T17:44:35.790Z,29.80
2018-08-31T17:47:04.236Z,25.30
2018-08-31T17:49:33.147Z,25.00
2018-08-31T17:52:01.477Z,22.50
2018-08-31T17:54:29.864Z,25.00
2018-08-31T17:56:59.944Z,24.25
2018-08-31T17:59:30.373Z,25.70
2018-08-31T18:01:58.570Z,24.37
2018-08-31T18:04:26.636Z,27.85
2018-08-31T18:06:55.007Z,27.55
2018-08-31T18:09:31.487Z,27.62
2018-08-31T18:11:59.622Z,29.35
2018-08-31T18:14:27.727Z,31.33
2018-08-31T18:16:55.789Z,31.35
2018-08-31T18:19:23.842Z,31.75
2018-08-31T18:21:51.826Z,30.92
2018-08-31T18:24:20.099Z,33.48
2018-08-31T18:26:48.195Z,32.97
2018-08-31T18:29:16.243Z,32.93
2018-08-31T18:31:44.438Z,35.13
2018-08-31T18:34:12.507Z,35.63
2018-08-31T18:36:40.691Z,35.90
2018-08-31T18:39:09.248Z,34.98
2018-08-31T18:41:37.653Z,35.75
2018-08-31T18:44:05.818Z,35.00
2018-08-31T18:46:34.144Z,37.60
2018-08-31T18:49:02.380Z,38.60
2018-08-31T18:51:30.615Z,35.52
2018-08-31T18:53:58.847Z,38.50
2018-08-31T18:56:27.043Z,36.60
2018-08-31T18:58:55.279Z,37.17
2018-08-31T19:01:23.501Z,37.08
2018-08-31T19:03:51.535Z,39.50
2018-08-31T19:06:19.719Z,38.92
2018-08-31T19:08:47.763Z,37.63
2018-08-31T19:11:15.966Z,38.38
2018-08-31T19:13:44.111Z,37.25
2018-08-31T19:16:12.444Z,37.67
2018-08-31T19:18:43.635Z,35.55
2018-08-31T19:21:11.644Z,35.55
2018-08-31T19:23:39.800Z,35.13
2018-08-31T19:26:08.120Z,37.55
2018-08-31T19:28:36.171Z,37.95
2018-08-31T19:31:04.311Z,39.45
2018-08-31T19:33:32.650Z,37.90
2018-08-31T19:36:00.686Z,36.48
2018-08-31T19:38:29.455Z,34.05
2018-08-31T19:40:57.491Z,35.20
2018-08-31T19:43:25.610Z,34.15
2018-08-31T19:45:53.720Z,36.10
2018-08-31T19:48:21.951Z,34.70
2018-08-31T19:50:50.155Z,34.03
2018-08-31T19:53:18.330Z,35.65
2018-08-31T19:55:46.369Z,33.40
2018-08-31T19:58:14.397Z,33.02
2018-08-31T20:00:42.727Z,35.10
2018-08-31T20:03:12.234Z,33.95
2018-08-31T20:05:40.427Z,35.52
2018-08-31T20:08:08.520Z,35.00
2018-08-31T20:10:36.787Z,34.23
2018-08-31T20:13:04.938Z,34.17
2018-08-31T20:15:33.159Z,34.33
2018-08-31T20:18:01.191Z,33.30
2018-08-31T20:20:29.387Z,33.05
2018-08-31T20:22:57.522Z,34.70
2018-08-31T20:25:25.641Z,34.73
2018-08-31T20:27:53.704Z,35.40
2018-08-31T20:30:21.810Z,34.53
2018-08-31T20:32:49.839Z,34.23
2018-08-31T20:35:18.952Z,35.90
2018-08-31T20:37:47.351Z,37.20
2018-08-31T20:40:15.435Z,37.05
2018-08-31T20:42:43.511Z,36.40
2018-08-31T20:45:11.858Z,34.63
2018-08-31T20:47:39.803Z,33.92
2018-08-31T20:50:08.235Z,33.58
2018-08-31T20:52:36.419Z,32.25
2018-08-31T20:55:04.827Z,32.80
2018-08-31T20:57:32.831Z,31.97
2018-08-31T21:00:01.008Z,33.85
2018-08-31T21:02:29.215Z,34.00
2018-08-31T21:04:57.266Z,30.57
2018-08-31T21:07:25.351Z,29.03
2018-08-31T21:09:53.475Z,30.55
2018-08-31T21:12:21.583Z,29.55
2018-08-31T21:14:49.725Z,31.25
2018-08-31T21:17:17.942Z,31.02
2018-08-31T21:19:45.999Z,30.17
2018-08-31T21:22:14.099Z,30.27
2018-08-31T21:24:42.158Z,30.12
2018-08-31T21:27:10.251Z,27.42
2018-08-31T21:29:38.331Z,28.30
2018-08-31T21:32:06.627Z,27.00
2018-08-31T21:34:34.655Z,27.40
2018-08-31T21:37:02.701Z,26.37
2018-08-31T21:39:30.827Z,25.60
2018-08-31T21:41:58.868Z,25.90
2018-08-31T21:44:26.951Z,26.45
2018-08-31T21:46:55.091Z,24.82
2018-08-31T21:49:23.108Z,25.45
2018-08-31T21:51:51.135Z,26.80
2018-08-31T21:54:19.315Z,25.65
2018-08-31T21:56:47.488Z,24.30
2018-08-31T21:59:15.506Z,24.98
2018-08-31T22:01:48.080Z,26.23
2018-08-31T22:04:16.156Z,25.60
2018-08-31T22:06:44.189Z,25.50
2018-08-31T22:09:12.446Z,26.45
2018-08-31T22:11:40.581Z,27.17
2018-08-31T22:14:08.630Z,26.17
2018-08-31T22:16:36.814Z,29.50
2018-08-31T22:19:04.963Z,27.30
2018-08-31T22:21:33.082Z,29.35
2018-08-31T22:24:01.219Z,27.40
2018-08-31T22:26:29.327Z,28.57
2018-08-31T22:28:57.455Z,28.30
2018-08-31T22:31:25.579Z,29.37
2018-08-31T22:33:53.707Z,31.80
2018-08-31T22:36:21.830Z,31.55
2018-08-31T22:38:49.874Z,31.63
2018-08-31T22:41:17.934Z,31.73
2018-08-31T22:43:48.989Z,33.23
2018-08-31T22:46:17.677Z,33.45
2018-08-31T22:48:46.067Z,34.33
2018-08-31T22:51:14.239Z,34.95
2018-08-31T22:53:42.280Z,34.20
2018-08-31T22:56:10.274Z,35.78
2018-08-31T22:58:38.355Z,34.75
2018-08-31T23:01:06.434Z,36.10
2018-08-31T23:03:34.492Z,36.80
2018-08-31T23:06:02.686Z,36.10
2018-08-31T23:08:30.730Z,38.08
2018-08-31T23:10:58.826Z,39.27
2018-08-31T23:13:26.899Z,37.35
2018-08-31T23:15:55.053Z,37.75
2018-08-31T23:18:23.235Z,38.75
2018-08-31T23:20:51.330Z,37.05
2018-08-31T23:23:32.899Z,39.10
2018-08-31T23:26:01.194Z,38.75
2018-08-31T23:28:29.379Z,39.25
2018-08-31T23:30:57.474Z,38.02
2018-08-31T23:33:25.590Z,36.85
2018-08-31T23:35:53.654Z,38.17
2018-08-31T23:38:21.775Z,38.23
2018-08-31T23:40:49.806Z,37.80
2018-08-31T23:43:17.915Z,38.67
2018-08-31T23:45:45.910Z,37.93
2018-08-31T23:48:13.923Z,38.73
2018-08-31T23:50:42.035Z,38.25
2018-08-31T23:53:10.296Z,38.75
2018-08-31T23:55:38.359Z,38.67
2018-08-31T23:58:06.443Z,36.15
